Time;durP1;ratioP1;P1;durP2;ratioP2;P2;SDS_P1;SDS_P2;PMS_P1;PMS_P2;Temp;Humidity;BMP_temperature;BMP_pressure;BME280_temperature;BME280_humidity;BME280_pressure;Samples;Min_cycle;Max_cycle;Signal;HPM_P1;HPM_P2
2023/03/11 00:00:17;;;;;;;21.00;15.93;;;1.10;99.90;;;;;;4846390;29;20476;-58
2023/03/11 00:02:46;;;;;;;20.43;15.63;;;1.00;99.90;;;;;;4843840;29;21048;-58
2023/03/11 00:05:16;;;;;;;19.67;15.10;;;1.10;99.90;;;;;;4844055;29;20472;-58
2023/03/11 00:07:45;;;;;;;20.63;15.60;;;1.00;99.90;;;;;;4843836;29;20466;-58
2023/03/11 00:10:15;;;;;;;19.47;15.13;;;1.00;99.90;;;;;;4851440;29;20838;-58
2023/03/11 00:12:43;;;;;;;23.20;16.50;;;1.00;99.90;;;;;;4859680;29;20463;-58
2023/03/11 00:15:12;;;;;;;21.80;15.87;;;1.00;99.90;;;;;;4840417;29;20499;-58
2023/03/11 00:17:40;;;;;;;21.33;15.97;;;1.00;99.90;;;;;;4838791;29;21001;-58
2023/03/11 00:20:16;;;;;;;22.10;15.50;;;1.00;99.90;;;;;;4833448;29;20477;-58
2023/03/11 00:22:45;;;;;;;21.50;16.33;;;1.00;99.90;;;;;;4835275;29;20473;-59
2023/03/11 00:25:14;;;;;;;21.53;15.63;;;1.00;99.90;;;;;;4841111;29;20977;-59
2023/03/11 00:27:42;;;;;;;21.73;15.90;;;1.00;99.90;;;;;;4829427;29;20480;-58
2023/03/11 00:30:12;;;;;;;22.20;16.63;;;1.00;99.90;;;;;;4832333;29;20469;-57
2023/03/11 00:32:40;;;;;;;23.30;16.60;;;1.00;99.90;;;;;;4830627;29;20955;-58
2023/03/11 00:35:11;;;;;;;19.80;15.50;;;1.00;99.90;;;;;;4843293;29;20468;-58
2023/03/11 00:37:40;;;;;;;23.33;16.73;;;1.00;99.90;;;;;;4842906;29;20492;-59
2023/03/11 00:40:12;;;;;;;25.17;17.50;;;1.00;99.90;;;;;;4854159;29;20469;-58
2023/03/11 00:42:40;;;;;;;22.47;16.77;;;1.00;99.90;;;;;;4845617;29;20559;-58
2023/03/11 00:45:11;;;;;;;23.30;17.17;;;1.00;99.90;;;;;;4849334;29;20502;-58
2023/03/11 00:47:39;;;;;;;19.70;15.37;;;1.00;99.90;;;;;;4834081;29;20485;-59
2023/03/11 00:50:11;;;;;;;23.77;17.50;;;1.00;99.90;;;;;;4841611;29;20485;-58
2023/03/11 00:52:40;;;;;;;22.10;16.90;;;1.00;99.90;;;;;;4846704;29;20554;-58
2023/03/11 00:55:11;;;;;;;22.13;16.60;;;1.00;99.90;;;;;;4853569;29;20468;-58
2023/03/11 00:57:39;;;;;;;24.83;16.70;;;1.00;99.90;;;;;;4859899;29;20520;-59
2023/03/11 01:00:12;;;;;;;22.70;17.20;;;1.00;99.90;;;;;;4859981;29;20527;-58
2023/03/11 01:02:40;;;;;;;20.90;16.43;;;1.00;99.90;;;;;;4860394;29;20488;-58
2023/03/11 01:05:10;;;;;;;23.30;16.50;;;1.00;99.90;;;;;;4859141;29;20961;-57
2023/03/11 01:07:38;;;;;;;22.50;17.03;;;1.00;99.90;;;;;;4861176;29;20558;-58
2023/03/11 01:10:09;;;;;;;23.93;17.00;;;1.00;99.90;;;;;;4854846;29;20473;-59
2023/03/11 01:12:37;;;;;;;22.63;16.77;;;1.00;99.90;;;;;;4856339;29;20972;-58
2023/03/11 01:15:07;;;;;;;21.93;16.70;;;1.00;99.90;;;;;;4853550;29;20915;-59
2023/03/11 01:17:35;;;;;;;21.83;16.43;;;1.00;99.90;;;;;;4842802;29;20556;-58
2023/03/11 01:20:05;;;;;;;25.03;17.53;;;1.00;99.90;;;;;;4842429;29;20515;-58
2023/03/11 01:22:33;;;;;;;23.60;16.67;;;1.00;99.90;;;;;;4845453;29;20475;-58
2023/03/11 01:25:02;;;;;;;23.20;17.07;;;1.00;99.90;;;;;;4852984;29;20455;-59
2023/03/11 01:27:32;;;;;;;22.27;16.60;;;1.00;99.90;;;;;;4859465;29;20464;-59
2023/03/11 01:30:00;;;;;;;24.97;17.50;;;1.00;99.90;;;;;;4860987;29;20972;-58
2023/03/11 01:32:28;;;;;;;23.47;17.67;;;1.00;99.90;;;;;;4860220;29;20852;-58
2023/03/11 01:34:56;;;;;;;23.00;16.93;;;1.00;99.90;;;;;;4860706;29;20468;-58
2023/03/11 01:37:26;;;;;;;23.67;16.77;;;1.00;99.90;;;;;;4860479;29;20468;-58
2023/03/11 01:39:54;;;;;;;23.37;17.33;;;1.00;99.90;;;;;;4856822;29;20814;-58
2023/03/11 01:42:22;;;;;;;21.83;16.87;;;1.00;99.90;;;;;;4855419;29;20837;-59
2023/03/11 01:44:52;;;;;;;23.03;16.20;;;1.00;99.90;;;;;;4855171;29;21000;-59
2023/03/11 01:47:36;;;;;;;20.57;15.30;;;1.00;99.90;;;;;;4841625;29;20490;-59
2023/03/11 01:50:10;;;;;;;20.27;14.37;;;1.00;99.90;;;;;;4840810;29;20520;-58
2023/03/11 01:52:40;;;;;;;19.87;14.93;;;1.00;99.90;;;;;;4841913;29;20504;-58
2023/03/11 01:55:09;;;;;;;19.73;15.07;;;1.00;99.90;;;;;;4852613;29;20559;-59
2023/03/11 01:57:40;;;;;;;17.70;13.73;;;1.00;99.90;;;;;;4858969;29;20480;-58
2023/03/11 02:00:14;;;;;;;17.33;13.77;;;1.00;99.90;;;;;;4859124;29;20499;-58
2023/03/11 02:02:46;;;;;;;18.77;14.20;;;1.00;99.90;;;;;;4858706;29;20978;-59
2023/03/11 02:05:16;;;;;;;20.20;13.90;;;1.00;99.90;;;;;;4859092;29;20480;-58
2023/03/11 02:08:13;;;;;;;17.60;13.43;;;1.00;99.90;;;;;;4860119;29;20968;-59
2023/03/11 02:10:42;;;;;;;18.57;13.90;;;1.00;99.90;;;;;;4849345;29;20487;-59
2023/03/11 02:13:11;;;;;;;18.50;13.77;;;1.00;99.90;;;;;;4859054;29;20574;-59
2023/03/11 02:15:41;;;;;;;18.90;13.80;;;1.00;99.90;;;;;;4849730;29;21009;-59
2023/03/11 02:18:13;;;;;;;18.93;14.03;;;1.00;99.90;;;;;;4851603;29;21048;-58
2023/03/11 02:20:49;;;;;;;18.67;13.13;;;1.00;99.90;;;;;;4840422;29;20505;-59
2023/03/11 02:23:19;;;;;;;17.80;13.10;;;0.90;99.90;;;;;;4849870;29;20829;-59
2023/03/11 02:25:54;;;;;;;16.70;12.43;;;0.90;99.90;;;;;;4854762;29;20475;-58
2023/03/11 02:28:25;;;;;;;17.40;13.03;;;0.90;99.90;;;;;;4862702;29;20532;-58
2023/03/11 02:30:55;;;;;;;15.50;12.00;;;0.90;99.90;;;;;;4862127;29;20501;-58
2023/03/11 02:33:27;;;;;;;17.27;12.90;;;0.90;99.90;;;;;;4844735;29;20857;-58
2023/03/11 02:35:56;;;;;;;16.07;12.43;;;0.90;99.90;;;;;;4844017;29;20496;-58
2023/03/11 02:38:25;;;;;;;16.47;12.10;;;0.90;99.90;;;;;;4843962;29;20500;-57
2023/03/11 02:40:55;;;;;;;16.17;12.77;;;0.90;99.90;;;;;;4853418;29;20476;-58
2023/03/11 02:43:33;;;;;;;17.40;12.60;;;0.90;99.90;;;;;;4861463;29;20827;-58
2023/03/11 02:46:03;;;;;;;13.77;11.93;;;1.00;99.90;;;;;;4855423;29;20459;-59
2023/03/11 02:48:34;;;;;;;15.57;11.90;;;1.00;99.90;;;;;;4862140;29;20481;-58
2023/03/11 02:51:02;;;;;;;15.57;12.07;;;1.00;99.90;;;;;;4856168;29;20476;-59
2023/03/11 02:53:36;;;;;;;14.20;11.57;;;1.00;99.90;;;;;;4850372;29;20502;-59
2023/03/11 02:56:05;;;;;;;14.87;11.77;;;1.00;99.90;;;;;;4850979;29;20574;-59
2023/03/11 02:58:36;;;;;;;16.27;11.80;;;1.00;99.90;;;;;;4843449;29;20528;-58
2023/03/11 03:01:04;;;;;;;14.57;11.87;;;0.90;99.90;;;;;;4843196;29;20492;-58
2023/03/11 03:03:33;;;;;;;14.87;11.87;;;0.90;99.90;;;;;;4843400;29;20487;-59
2023/03/11 03:06:02;;;;;;;14.60;11.50;;;1.00;99.90;;;;;;4845933;29;20505;-58
2023/03/11 03:08:30;;;;;;;13.47;11.57;;;1.00;99.90;;;;;;4844604;29;20834;-58
2023/03/11 03:10:58;;;;;;;14.33;11.50;;;1.00;99.90;;;;;;4854833;29;20475;-58
2023/03/11 03:13:27;;;;;;;14.87;11.87;;;1.00;99.90;;;;;;4860708;29;20588;-58
2023/03/11 03:15:57;;;;;;;16.33;11.90;;;1.00;99.90;;;;;;4853030;29;20488;-58
2023/03/11 03:18:26;;;;;;;13.43;10.63;;;1.00;99.90;;;;;;4861919;29;20523;-58
2023/03/11 03:20:54;;;;;;;13.33;10.47;;;1.00;99.90;;;;;;4862992;29;20516;-58
2023/03/11 03:23:23;;;;;;;14.70;11.50;;;0.90;99.90;;;;;;4859193;29;20499;-58
2023/03/11 03:25:51;;;;;;;16.17;11.10;;;1.00;99.90;;;;;;4853679;29;20471;-59
2023/03/11 03:28:19;;;;;;;15.13;11.03;;;1.00;99.90;;;;;;4861441;29;20476;-58
2023/03/11 03:30:47;;;;;;;15.17;10.67;;;0.90;99.90;;;;;;4860854;29;21007;-58
2023/03/11 03:33:17;;;;;;;13.27;10.13;;;1.00;99.90;;;;;;4860803;29;20483;-58
2023/03/11 03:35:46;;;;;;;12.97;10.67;;;1.00;99.90;;;;;;4862868;29;21004;-59
2023/03/11 03:38:19;;;;;;;15.13;10.60;;;0.90;99.90;;;;;;4861384;29;20480;-58
2023/03/11 03:40:49;;;;;;;11.87;10.10;;;0.90;99.90;;;;;;4850111;29;20591;-58
2023/03/11 03:43:20;;;;;;;11.97;10.13;;;1.00;99.90;;;;;;4861252;29;20837;-59
2023/03/11 03:45:55;;;;;;;13.50;10.00;;;1.10;99.90;;;;;;4850118;29;20484;-57
2023/03/11 03:48:26;;;;;;;13.57;9.80;;;1.00;99.90;;;;;;4842693;29;20644;-58
2023/03/11 03:50:55;;;;;;;12.87;9.97;;;1.00;99.90;;;;;;4861228;29;20479;-58
2023/03/11 03:53:23;;;;;;;11.23;9.47;;;0.90;99.90;;;;;;4858621;29;20874;-58
2023/03/11 03:55:53;;;;;;;12.67;10.23;;;0.90;99.90;;;;;;4854581;29;20471;-59
2023/03/11 03:58:21;;;;;;;9.93;8.07;;;1.00;99.90;;;;;;4861136;29;21076;-58
2023/03/11 04:00:49;;;;;;;12.90;9.60;;;1.20;99.90;;;;;;4861782;29;20556;-59
2023/03/11 04:03:17;;;;;;;12.37;9.63;;;1.10;99.90;;;;;;4862296;29;20902;-58
2023/03/11 04:06:06;;;;;;;11.67;9.40;;;1.50;99.90;;;;;;4861210;29;20944;-59
2023/03/11 04:08:34;;;;;;;13.87;10.57;;;1.70;99.90;;;;;;4874927;29;20540;-59
2023/03/11 04:11:02;;;;;;;12.43;10.07;;;1.70;99.90;;;;;;4852972;29;20494;-59
2023/03/11 04:13:33;;;;;;;10.77;9.13;;;1.70;99.90;;;;;;4858895;29;20483;-58
2023/03/11 04:16:03;;;;;;;12.60;9.67;;;1.80;99.90;;;;;;4852670;29;21015;-59
2023/03/11 04:18:32;;;;;;;13.63;10.43;;;1.80;99.90;;;;;;4860612;29;20480;-58
2023/03/11 04:21:05;;;;;;;12.07;9.77;;;1.90;99.90;;;;;;4860720;29;20512;-58
2023/03/11 04:23:34;;;;;;;14.50;10.43;;;1.80;99.90;;;;;;4856708;29;20523;-58
2023/03/11 04:26:03;;;;;;;12.70;9.67;;;1.80;99.90;;;;;;4852869;29;20488;-58
2023/03/11 04:28:31;;;;;;;15.07;11.67;;;1.70;99.90;;;;;;4861676;29;20460;-58
2023/03/11 04:30:59;;;;;;;15.83;11.87;;;1.70;99.90;;;;;;4860237;29;20840;-58
2023/03/11 04:33:27;;;;;;;12.67;10.50;;;1.40;99.90;;;;;;4860289;29;20930;-58
2023/03/11 04:35:56;;;;;;;12.90;10.33;;;1.40;99.90;;;;;;4861692;29;20490;-58
2023/03/11 04:38:25;;;;;;;12.27;9.80;;;1.30;99.90;;;;;;4861670;29;20460;-58
2023/03/11 04:40:53;;;;;;;14.03;10.50;;;1.30;99.90;;;;;;4851333;29;20551;-58
2023/03/11 04:43:21;;;;;;;13.03;9.93;;;1.20;99.90;;;;;;4861191;29;20460;-58
2023/03/11 04:45:50;;;;;;;13.83;10.13;;;1.00;99.90;;;;;;4848879;29;20486;-58
2023/03/11 04:48:19;;;;;;;13.80;9.73;;;1.00;99.90;;;;;;4841729;29;20529;-58
2023/03/11 04:50:47;;;;;;;11.03;9.20;;;0.90;99.90;;;;;;4841208;29;20493;-58
2023/03/11 04:53:15;;;;;;;11.27;9.37;;;0.90;99.90;;;;;;4851307;29;20562;-59
2023/03/11 04:55:46;;;;;;;12.07;9.50;;;0.90;99.90;;;;;;4852069;29;20986;-58
2023/03/11 04:58:14;;;;;;;11.87;9.07;;;0.90;99.90;;;;;;4860130;29;20848;-58
2023/03/11 05:00:43;;;;;;;13.07;9.53;;;0.80;99.90;;;;;;4859376;29;20485;-58
2023/03/11 05:03:13;;;;;;;12.13;9.17;;;0.80;99.90;;;;;;4859914;29;20490;-58
2023/03/11 05:05:41;;;;;;;12.10;9.57;;;0.80;99.90;;;;;;4856839;29;20487;-58
2023/03/11 05:08:10;;;;;;;11.60;8.77;;;0.80;99.90;;;;;;4859847;29;20520;-58
2023/03/11 05:10:40;;;;;;;12.27;9.37;;;0.80;99.90;;;;;;4842007;29;20549;-58
2023/03/11 05:13:11;;;;;;;10.90;8.87;;;0.80;99.90;;;;;;4839541;29;20541;-58
2023/03/11 05:15:41;;;;;;;11.40;9.00;;;0.80;99.90;;;;;;4848445;29;20500;-57
2023/03/11 05:18:09;;;;;;;12.87;9.27;;;0.80;99.90;;;;;;4842633;29;20467;-58
2023/03/11 05:20:39;;;;;;;11.60;8.93;;;0.70;99.90;;;;;;4841095;29;20508;-58
2023/03/11 05:23:08;;;;;;;10.70;8.73;;;0.80;99.90;;;;;;4848685;29;20547;-58
2023/03/11 05:25:37;;;;;;;10.27;8.73;;;0.90;99.90;;;;;;4851636;29;21047;-58
2023/03/11 05:28:06;;;;;;;11.30;8.83;;;0.80;99.90;;;;;;4842240;29;20473;-58
2023/03/11 05:30:39;;;;;;;10.47;8.67;;;0.80;99.90;;;;;;4830410;29;20508;-59
2023/03/11 05:33:08;;;;;;;11.30;8.83;;;0.80;99.90;;;;;;4822956;29;20481;-58
2023/03/11 05:35:36;;;;;;;12.93;9.17;;;0.70;99.90;;;;;;4822780;29;20495;-58
2023/03/11 05:38:04;;;;;;;11.53;8.77;;;0.70;99.90;;;;;;4830674;29;20883;-58
2023/03/11 05:40:33;;;;;;;11.33;9.07;;;0.70;99.90;;;;;;4848113;29;20555;-58
2023/03/11 05:43:01;;;;;;;12.37;9.63;;;0.70;99.90;;;;;;4842992;29;20478;-56
2023/03/11 05:45:33;;;;;;;12.40;9.13;;;0.60;99.90;;;;;;4842523;29;20482;-57
2023/03/11 05:48:04;;;;;;;10.83;8.80;;;0.60;99.90;;;;;;4840744;29;20572;-57
2023/03/11 05:50:33;;;;;;;10.23;8.40;;;0.60;99.90;;;;;;4832348;29;20526;-54
2023/03/11 05:53:01;;;;;;;12.40;8.97;;;0.60;99.90;;;;;;4836430;29;20494;-57
2023/03/11 05:55:30;;;;;;;13.20;8.80;;;0.90;99.90;;;;;;4853749;29;20471;-56
2023/03/11 05:58:00;;;;;;;10.37;8.63;;;0.90;99.90;;;;;;4858644;29;20476;-57
2023/03/11 06:00:28;;;;;;;12.03;8.60;;;1.00;99.90;;;;;;4858629;29;20525;-57
2023/03/11 06:02:59;;;;;;;12.77;8.53;;;1.20;99.90;;;;;;4855851;29;20488;-56
2023/03/11 06:05:29;;;;;;;14.90;9.40;;;1.40;99.90;;;;;;4839483;29;20516;-56
2023/03/11 06:07:57;;;;;;;12.93;8.73;;;1.40;99.90;;;;;;4853379;29;20992;-57
2023/03/11 06:10:26;;;;;;;13.27;8.87;;;1.50;99.90;;;;;;4860219;29;20467;-56
2023/03/11 06:12:54;;;;;;;9.73;7.77;;;1.70;99.90;;;;;;4858105;29;20487;-57
2023/03/11 06:15:35;;;;;;;11.43;10.13;;;1.70;99.90;;;;;;4838808;29;20491;-56
2023/03/11 06:18:04;;;;;;;11.50;9.37;;;1.80;99.90;;;;;;4858317;29;20224;-56
2023/03/11 06:20:37;;;;;;;10.87;8.67;;;2.30;99.90;;;;;;4860079;29;20575;-56
2023/03/11 06:23:06;;;;;;;11.83;7.67;;;2.10;99.90;;;;;;4860810;29;20461;-56
2023/03/11 06:25:34;;;;;;;10.00;7.63;;;2.00;99.90;;;;;;4848899;29;20482;-56
2023/03/11 06:28:02;;;;;;;10.17;7.93;;;2.00;99.90;;;;;;4859494;29;20572;-56
2023/03/11 06:30:30;;;;;;;10.70;8.10;;;2.10;99.90;;;;;;4859033;29;20468;-56
2023/03/11 06:33:07;;;;;;;11.77;8.97;;;2.10;99.90;;;;;;4858990;29;20472;-56
2023/03/11 06:35:37;;;;;;;14.80;10.23;;;2.10;99.90;;;;;;4858849;29;20908;-56
2023/03/11 06:38:05;;;;;;;13.73;10.13;;;2.10;99.90;;;;;;4858847;29;20469;-56
2023/03/11 06:40:34;;;;;;;13.63;9.97;;;2.00;99.90;;;;;;4858686;29;20497;-56
2023/03/11 06:43:02;;;;;;;13.70;9.77;;;1.90;99.90;;;;;;4858824;29;20846;-56
2023/03/11 06:45:33;;;;;;;13.17;9.90;;;2.00;99.90;;;;;;4839106;29;20483;-56
2023/03/11 06:48:01;;;;;;;15.43;11.17;;;2.00;99.90;;;;;;4838201;29;20480;-56
2023/03/11 06:50:31;;;;;;;14.27;10.03;;;2.10;99.90;;;;;;4834661;29;20483;-56
2023/03/11 06:53:05;;;;;;;13.50;10.27;;;2.20;99.90;;;;;;4840217;29;20472;-56
2023/03/11 06:55:34;;;;;;;17.40;11.83;;;2.10;99.90;;;;;;4843608;29;20481;-56
2023/03/11 06:58:03;;;;;;;12.80;10.30;;;2.20;99.90;;;;;;4858616;29;20508;-56
2023/03/11 07:00:32;;;;;;;15.20;11.10;;;2.30;99.90;;;;;;4837915;29;20476;-56
2023/03/11 07:03:00;;;;;;;12.70;9.50;;;2.30;99.90;;;;;;4873576;29;20512;-56
2023/03/11 07:05:29;;;;;;;14.67;10.93;;;2.40;99.90;;;;;;4828765;29;20543;-56
2023/03/11 07:08:03;;;;;;;16.90;13.10;;;2.20;99.90;;;;;;4823043;29;20486;-56
2023/03/11 07:10:31;;;;;;;15.23;11.30;;;2.20;99.90;;;;;;4840127;29;20812;-56
2023/03/11 07:12:59;;;;;;;13.47;10.53;;;2.20;99.90;;;;;;4845875;29;20502;-57
2023/03/11 07:15:27;;;;;;;12.20;8.57;;;2.30;99.90;;;;;;4849154;29;20587;-56
2023/03/11 07:17:55;;;;;;;13.70;10.27;;;2.30;99.90;;;;;;4848052;29;20479;-56
2023/03/11 07:20:24;;;;;;;14.77;10.17;;;2.40;99.90;;;;;;4842023;29;20488;-56
2023/03/11 07:22:52;;;;;;;13.87;10.70;;;2.30;99.90;;;;;;4844065;29;20965;-56
2023/03/11 07:25:22;;;;;;;15.27;10.57;;;2.30;99.90;;;;;;4850094;29;20469;-56
2023/03/11 07:27:50;;;;;;;15.00;10.57;;;2.20;99.90;;;;;;4860884;29;20492;-56
2023/03/11 07:30:19;;;;;;;12.47;9.93;;;2.20;99.90;;;;;;4856958;29;20842;-56
2023/03/11 07:32:47;;;;;;;13.03;10.40;;;2.20;99.90;;;;;;4846319;29;20485;-56
2023/03/11 07:35:15;;;;;;;12.57;10.00;;;2.10;99.90;;;;;;4844393;29;20474;-56
2023/03/11 07:37:44;;;;;;;11.47;9.50;;;2.10;99.90;;;;;;4858044;29;20974;-56
2023/03/11 07:40:13;;;;;;;11.17;9.17;;;2.20;99.90;;;;;;4855212;29;20460;-56
2023/03/11 07:42:43;;;;;;;10.50;9.40;;;2.20;99.90;;;;;;4862415;29;20500;-56
2023/03/11 07:45:11;;;;;;;13.50;9.30;;;2.20;99.90;;;;;;4855878;29;20484;-56
2023/03/11 07:47:39;;;;;;;10.07;8.30;;;2.30;99.90;;;;;;4859695;29;20842;-57
2023/03/11 07:50:08;;;;;;;10.97;8.57;;;2.20;99.90;;;;;;4855804;29;20481;-56
2023/03/11 07:52:36;;;;;;;10.33;8.27;;;2.30;99.90;;;;;;4862229;29;20475;-56
2023/03/11 07:55:05;;;;;;;10.93;8.27;;;2.30;99.90;;;;;;4859205;29;20476;-56
2023/03/11 07:57:33;;;;;;;11.57;8.67;;;2.30;99.90;;;;;;4843850;29;20481;-56
2023/03/11 08:00:03;;;;;;;9.23;7.77;;;2.40;99.90;;;;;;4843771;29;20966;-56
2023/03/11 08:02:38;;;;;;;13.03;8.47;;;2.40;99.90;;;;;;4839291;29;20493;-56
2023/03/11 08:05:07;;;;;;;12.47;8.77;;;2.50;99.90;;;;;;4830838;29;20473;-60
2023/03/11 08:07:36;;;;;;;13.83;8.10;;;2.50;99.90;;;;;;4834531;29;20565;-55
2023/03/11 08:10:04;;;;;;;11.03;7.97;;;2.60;99.90;;;;;;4831036;29;20491;-57
2023/03/11 08:12:32;;;;;;;10.93;8.10;;;2.70;99.90;;;;;;4827308;29;20509;-57
2023/03/11 08:15:02;;;;;;;8.60;7.43;;;2.70;99.90;;;;;;4848709;29;20487;-57
2023/03/11 08:17:30;;;;;;;12.00;8.03;;;2.80;99.90;;;;;;4847378;29;20564;-57
2023/03/11 08:19:58;;;;;;;11.07;8.23;;;2.80;99.90;;;;;;4826457;29;20470;-56
2023/03/11 08:22:26;;;;;;;9.77;7.63;;;2.80;99.90;;;;;;4839841;29;20493;-57
2023/03/11 08:24:55;;;;;;;9.80;7.70;;;2.80;99.90;;;;;;4851999;29;20997;-57
2023/03/11 08:27:23;;;;;;;9.57;7.30;;;2.90;99.90;;;;;;4846143;29;20476;-58
2023/03/11 08:29:51;;;;;;;9.63;7.60;;;2.90;99.90;;;;;;4843412;29;20995;-57
2023/03/11 08:32:21;;;;;;;12.43;7.67;;;2.80;99.90;;;;;;4826875;29;20478;-57
2023/03/11 08:34:49;;;;;;;9.73;7.13;;;2.90;99.90;;;;;;4826324;29;20487;-57
2023/03/11 08:37:17;;;;;;;9.97;7.17;;;2.90;99.90;;;;;;4835821;29;20545;-57
2023/03/11 08:39:45;;;;;;;10.13;7.40;;;2.90;99.90;;;;;;4836899;29;20466;-57
2023/03/11 08:42:13;;;;;;;9.13;7.03;;;3.00;99.90;;;;;;4835130;29;20493;-57
2023/03/11 08:44:41;;;;;;;9.93;6.83;;;3.10;99.90;;;;;;4834365;29;21021;-57
2023/03/11 08:47:10;;;;;;;8.37;6.90;;;3.10;99.90;;;;;;4833580;29;20545;-57
2023/03/11 08:49:40;;;;;;;7.60;6.10;;;3.10;99.90;;;;;;4831791;29;20482;-58
2023/03/11 08:52:08;;;;;;;10.47;7.00;;;3.10;99.90;;;;;;4845097;29;21179;-58
2023/03/11 08:54:36;;;;;;;9.53;5.73;;;3.20;99.90;;;;;;4850981;29;20491;-58
2023/03/11 08:57:04;;;;;;;10.90;6.00;;;3.20;99.90;;;;;;4838677;29;20474;-57
2023/03/11 08:59:32;;;;;;;8.77;6.27;;;3.20;99.90;;;;;;4842897;29;20470;-58
2023/03/11 09:02:00;;;;;;;7.23;5.50;;;3.30;99.90;;;;;;4840461;29;20495;-59
2023/03/11 09:04:28;;;;;;;7.97;5.90;;;3.30;99.90;;;;;;4840724;29;20494;-58
2023/03/11 09:06:57;;;;;;;7.57;5.30;;;3.30;99.90;;;;;;4842610;29;20472;-58
2023/03/11 09:09:26;;;;;;;6.80;4.83;;;3.40;99.90;;;;;;4840031;29;20482;-58
2023/03/11 09:11:54;;;;;;;7.57;5.20;;;3.50;99.90;;;;;;4842380;29;20465;-58
2023/03/11 09:14:22;;;;;;;6.93;5.03;;;3.50;99.90;;;;;;4847503;29;20486;-58
2023/03/11 09:16:50;;;;;;;8.03;4.90;;;3.50;99.90;;;;;;4847549;29;20465;-58
2023/03/11 09:19:18;;;;;;;8.53;4.50;;;3.50;99.90;;;;;;4843489;29;20926;-58
2023/03/11 09:21:46;;;;;;;6.80;4.73;;;3.50;99.90;;;;;;4833532;29;20500;-58
2023/03/11 09:24:15;;;;;;;6.73;5.13;;;3.40;99.90;;;;;;4853760;29;20480;-58
2023/03/11 09:26:43;;;;;;;7.97;4.70;;;3.50;99.90;;;;;;4842782;29;20488;-58
2023/03/11 09:29:11;;;;;;;6.80;5.03;;;3.50;99.90;;;;;;4842264;29;20485;-58
2023/03/11 09:31:39;;;;;;;8.23;4.70;;;3.60;99.90;;;;;;4838299;29;20847;-58
2023/03/11 09:34:07;;;;;;;6.27;4.53;;;3.70;99.90;;;;;;4855470;29;20468;-58
2023/03/11 09:36:35;;;;;;;8.40;4.83;;;3.70;99.90;;;;;;4847801;29;21000;-58
2023/03/11 09:39:04;;;;;;;7.60;5.13;;;3.70;99.90;;;;;;4851389;29;20474;-58
2023/03/11 09:41:41;;;;;;;8.60;5.47;;;3.70;99.90;;;;;;4859384;29;20477;-58
2023/03/11 09:44:33;;;;;;;6.27;4.80;;;3.70;99.90;;;;;;4848347;29;20534;-58
2023/03/11 09:47:32;;;;;;;6.43;4.83;;;3.70;99.90;;;;;;4852896;29;20489;-58
2023/03/11 09:50:15;;;;;;;7.83;4.33;;;3.70;99.90;;;;;;4860789;29;20479;-58
2023/03/11 09:52:49;;;;;;;6.90;4.47;;;3.70;99.90;;;;;;4847420;29;20978;-58
2023/03/11 09:55:38;;;;;;;5.50;3.70;;;3.80;99.90;;;;;;4852857;29;20482;-58
2023/03/11 09:58:17;;;;;;;6.50;4.47;;;3.90;99.90;;;;;;4860670;29;20496;-58
2023/03/11 10:00:47;;;;;;;9.83;4.10;;;3.90;99.90;;;;;;4859981;29;20484;-58
2023/03/11 10:03:30;;;;;;;9.30;3.90;;;3.90;99.90;;;;;;4860602;29;20506;-58
2023/03/11 10:06:11;;;;;;;8.23;3.70;;;3.90;99.90;;;;;;4860056;29;20477;-58
2023/03/11 10:08:43;;;;;;;6.80;3.90;;;3.90;99.90;;;;;;4860242;29;20471;-58
2023/03/11 10:11:27;;;;;;;6.63;3.70;;;3.90;99.90;;;;;;4860310;29;20469;-58
2023/03/11 10:14:04;;;;;;;7.57;3.43;;;4.00;99.90;;;;;;4858107;29;20476;-58
2023/03/11 10:16:40;;;;;;;7.60;3.67;;;4.00;99.90;;;;;;4852450;29;20818;-58
2023/03/11 10:19:15;;;;;;;5.17;3.27;;;4.00;99.90;;;;;;4860066;29;20464;-57
2023/03/11 10:21:51;;;;;;;6.60;3.13;;;4.00;99.90;;;;;;4850550;29;20528;-57
2023/03/11 10:24:38;;;;;;;7.70;2.90;;;4.10;99.90;;;;;;4852808;29;20472;-57
2023/03/11 10:27:13;;;;;;;5.97;2.53;;;4.10;99.90;;;;;;4823923;29;20486;-57
2023/03/11 10:29:52;;;;;;;3.13;2.23;;;4.10;99.90;;;;;;4824742;29;20471;-58
2023/03/11 10:32:26;;;;;;;7.67;2.53;;;4.20;99.90;;;;;;4849011;29;20478;-57
2023/03/11 10:34:59;;;;;;;4.63;1.80;;;4.20;99.90;;;;;;4842724;29;20860;-58
2023/03/11 10:37:31;;;;;;;5.07;1.60;;;4.20;99.90;;;;;;4841676;29;20499;-57
2023/03/11 10:40:24;;;;;;;3.97;1.70;;;4.20;99.90;;;;;;4841982;29;20879;-57
2023/03/11 10:42:55;;;;;;;4.97;1.80;;;4.30;99.90;;;;;;4843015;29;20545;-57
2023/03/11 10:45:25;;;;;;;5.17;1.60;;;4.20;99.90;;;;;;4852939;29;20471;-58
2023/03/11 10:47:55;;;;;;;7.20;1.70;;;4.30;99.90;;;;;;4862357;29;20482;-57
2023/03/11 10:50:24;;;;;;;5.70;2.00;;;4.30;99.90;;;;;;4860214;29;20519;-57
2023/03/11 10:53:08;;;;;;;4.03;1.57;;;4.30;99.90;;;;;;4858178;29;20473;-58
2023/03/11 10:55:44;;;;;;;2.50;1.20;;;4.40;99.90;;;;;;4855889;29;20831;-57
2023/03/11 10:58:14;;;;;;;4.20;1.30;;;4.40;99.90;;;;;;4863467;29;20462;-57
2023/03/11 11:00:44;;;;;;;4.90;1.20;;;4.50;99.90;;;;;;4863181;29;20581;-58
2023/03/11 11:03:20;;;;;;;4.90;1.00;;;4.40;99.90;;;;;;4863413;29;20506;-57
2023/03/11 11:05:59;;;;;;;2.70;1.10;;;4.50;99.90;;;;;;4863147;29;20469;-58
2023/03/11 11:08:27;;;;;;;2.93;1.53;;;4.50;99.90;;;;;;4863321;29;20489;-58
2023/03/11 11:10:57;;;;;;;6.27;1.50;;;4.70;99.90;;;;;;4860353;29;20951;-58
2023/03/11 11:13:28;;;;;;;4.83;1.00;;;4.90;99.90;;;;;;4862658;29;20482;-57
2023/03/11 11:16:03;;;;;;;3.70;1.10;;;5.00;99.90;;;;;;4854948;29;20603;-57
2023/03/11 11:18:34;;;;;;;5.17;1.40;;;5.00;99.90;;;;;;4863302;29;20482;-58
2023/03/11 11:21:05;;;;;;;6.47;1.40;;;5.10;99.90;;;;;;4860276;29;20471;-57
2023/03/11 11:23:38;;;;;;;3.37;1.27;;;5.30;99.90;;;;;;4859884;29;20581;-58
2023/03/11 11:26:14;;;;;;;6.77;1.80;;;5.40;99.90;;;;;;4848413;29;20478;-57
2023/03/11 11:28:43;;;;;;;4.77;1.40;;;5.40;99.90;;;;;;4851771;29;20234;-58
2023/03/11 11:31:24;;;;;;;4.23;1.50;;;5.70;99.90;;;;;;4864243;29;20838;-59
2023/03/11 11:33:53;;;;;;;5.23;1.60;;;5.80;99.90;;;;;;4863790;29;20479;-58
2023/03/11 11:36:24;;;;;;;3.97;1.70;;;5.80;99.90;;;;;;4865415;29;20478;-58
2023/03/11 11:38:53;;;;;;;4.67;1.57;;;5.90;99.90;;;;;;4865712;29;20477;-58
2023/03/11 11:41:23;;;;;;;2.13;1.20;;;6.20;99.90;;;;;;4865729;29;21020;-58
2023/03/11 11:43:53;;;;;;;5.13;1.53;;;6.30;99.90;;;;;;4880496;29;20233;-59
2023/03/11 11:46:29;;;;;;;3.90;1.40;;;6.50;99.90;;;;;;4869311;29;20234;-58
2023/03/11 11:49:06;;;;;;;6.67;1.50;;;6.50;99.90;;;;;;4865282;29;20245;-58
2023/03/11 11:51:40;;;;;;;4.67;1.90;;;6.60;99.90;;;;;;4856521;29;20243;-58
2023/03/11 11:54:16;;;;;;;3.47;1.43;;;6.90;99.90;;;;;;4853032;29;20238;-58
2023/03/11 11:56:45;;;;;;;5.60;1.57;;;6.90;99.90;;;;;;4861289;29;20234;-59
2023/03/11 11:59:17;;;;;;;7.47;1.83;;;7.00;99.90;;;;;;4847101;29;20258;-58
2023/03/11 12:01:59;;;;;;;4.07;1.67;;;6.70;99.90;;;;;;4844152;29;20243;-58
2023/03/11 12:04:47;;;;;;;5.20;1.60;;;6.40;99.90;;;;;;4844729;29;20457;-58
2023/03/11 12:07:34;;;;;;;6.27;1.70;;;6.20;99.90;;;;;;4843991;29;20240;-58
2023/03/11 12:10:14;;;;;;;3.93;1.37;;;6.20;99.90;;;;;;4847486;29;20238;-58
2023/03/11 12:13:19;;;;;;;4.10;1.50;;;6.20;99.90;;;;;;4827949;29;20262;-59
2023/03/11 12:15:53;;;;;;;6.07;1.30;;;6.20;99.90;;;;;;4853965;29;20255;-58
2023/03/11 12:18:28;;;;;;;7.33;1.60;;;6.20;99.90;;;;;;4863575;29;20226;-58
2023/03/11 12:20:56;;;;;;;4.27;1.50;;;6.10;99.90;;;;;;4854855;29;20237;-58
2023/03/11 12:23:46;;;;;;;3.97;1.23;;;6.10;99.90;;;;;;4844059;29;20322;-58
2023/03/11 12:26:20;;;;;;;3.80;1.57;;;6.10;99.90;;;;;;4835900;29;20236;-59
2023/03/11 12:28:53;;;;;;;5.30;1.20;;;6.10;99.90;;;;;;4835449;29;20322;-58
2023/03/11 12:31:24;;;;;;;5.67;1.43;;;6.00;99.90;;;;;;4838289;29;20245;-58
2023/03/11 12:33:59;;;;;;;2.67;1.27;;;6.00;99.90;;;;;;4841661;29;20223;-58
2023/03/11 12:36:31;;;;;;;3.03;1.03;;;5.90;99.90;;;;;;4834491;29;20656;-58
2023/03/11 12:39:00;;;;;;;2.80;1.10;;;5.80;99.90;;;;;;4841949;29;20241;-58
2023/03/11 12:41:35;;;;;;;4.10;1.23;;;5.80;99.90;;;;;;4824929;29;20243;-58
2023/03/11 12:44:24;;;;;;;2.87;1.20;;;5.80;99.90;;;;;;4828967;29;20766;-58
2023/03/11 12:47:24;;;;;;;3.90;1.37;;;5.90;99.90;;;;;;4836547;29;20235;-58
2023/03/11 12:49:55;;;;;;;6.47;3.57;;;6.00;99.90;;;;;;4840932;29;20230;-58
2023/03/11 12:52:30;;;;;;;7.07;2.37;;;6.10;99.90;;;;;;4845082;29;20329;-58
2023/03/11 12:55:37;;;;;;;4.87;1.20;;;6.30;99.90;;;;;;4850911;29;20242;-58
2023/03/11 12:58:31;;;;;;;3.30;1.40;;;6.10;99.90;;;;;;4839937;29;20253;-58
2023/03/11 13:01:47;;;;;;;5.27;2.10;;;6.10;99.90;;;;;;4837468;29;20258;-58
2023/03/11 13:04:25;;;;;;;4.83;1.47;;;6.10;99.90;;;;;;4784320;29;20676;-58
2023/03/11 13:07:32;;;;;;;4.53;1.43;;;6.20;99.90;;;;;;4841109;29;20242;-58